sensor_id;sensor_type;location;lat;lon;timestamp;pressure;altitude;pressure_sealevel;temperature;humidity
70930;BME280;58588;48.102;19.682;2023-01-25T00:01:06;101002.47;;;-1.49;100.00
70930;BME280;58588;48.102;19.682;2023-01-25T00:04:08;101011.28;;;-1.48;100.00
70930;BME280;58588;48.102;19.682;2023-01-25T00:07:10;101002.03;;;-1.58;100.00
70930;BME280;58588;48.102;19.682;2023-01-25T00:10:13;101002.03;;;-1.58;100.00
70930;BME280;58588;48.102;19.682;2023-01-25T00:13:16;101010.75;;;-1.56;100.00
70930;BME280;58588;48.102;19.682;2023-01-25T00:16:18;101003.19;;;-1.64;100.00
70930;BME280;58588;48.102;19.682;2023-01-25T00:19:20;101003.38;;;-1.69;100.00
70930;BME280;58588;48.102;19.682;2023-01-25T00:22:23;100965.31;;;-1.83;100.00
70930;BME280;58588;48.102;19.682;2023-01-25T00:25:25;101000.25;;;-1.77;100.00
70930;BME280;58588;48.102;19.682;2023-01-25T00:28:29;101013.25;;;-1.91;100.00
70930;BME280;58588;48.102;19.682;2023-01-25T00:31:37;101000.03;;;-1.91;100.00
70930;BME280;58588;48.102;19.682;2023-01-25T00:34:45;101002.16;;;-1.99;100.00
70930;BME280;58588;48.102;19.682;2023-01-25T00:37:48;100999.38;;;-1.96;100.00
70930;BME280;58588;48.102;19.682;2023-01-25T00:40:53;101006.31;;;-1.94;100.00
70930;BME280;58588;48.102;19.682;2023-01-25T00:43:57;101016.09;;;-1.96;100.00
70930;BME280;58588;48.102;19.682;2023-01-25T00:46:59;101005.44;;;-1.94;100.00
70930;BME280;58588;48.102;19.682;2023-01-25T00:50:01;101020.63;;;-1.99;100.00
70930;BME280;58588;48.102;19.682;2023-01-25T00:53:03;101016.28;;;-2.00;100.00
70930;BME280;58588;48.102;19.682;2023-01-25T00:56:05;101016.22;;;-1.99;100.00
70930;BME280;58588;48.102;19.682;2023-01-25T00:59:10;101006.00;;;-2.06;100.00
70930;BME280;58588;48.102;19.682;2023-01-25T01:02:12;101010.22;;;-2.02;100.00
70930;BME280;58588;48.102;19.682;2023-01-25T01:05:14;101010.53;;;-2.10;100.00
70930;BME280;58588;48.102;19.682;2023-01-25T01:08:16;101007.00;;;-2.09;100.00
70930;BME280;58588;48.102;19.682;2023-01-25T01:11:18;101010.78;;;-2.14;100.00
70930;BME280;58588;48.102;19.682;2023-01-25T01:14:22;101008.41;;;-2.21;100.00
70930;BME280;58588;48.102;19.682;2023-01-25T01:17:25;101019.75;;;-2.19;100.00
70930;BME280;58588;48.102;19.682;2023-01-25T01:20:27;101008.72;;;-2.28;100.00
70930;BME280;58588;48.102;19.682;2023-01-25T01:23:29;101012.25;;;-2.28;100.00
70930;BME280;58588;48.102;19.682;2023-01-25T01:26:31;101006.88;;;-2.26;100.00
70930;BME280;58588;48.102;19.682;2023-01-25T01:29:35;101006.63;;;-2.20;100.00
70930;BME280;58588;48.102;19.682;2023-01-25T01:32:37;101007.53;;;-2.21;100.00
70930;BME280;58588;48.102;19.682;2023-01-25T01:35:39;101000.59;;;-2.24;100.00
70930;BME280;58588;48.102;19.682;2023-01-25T01:38:41;100995.31;;;-2.24;100.00
70930;BME280;58588;48.102;19.682;2023-01-25T01:41:43;100997.56;;;-2.14;100.00
70930;BME280;58588;48.102;19.682;2023-01-25T01:44:48;100997.59;;;-2.16;100.00
70930;BME280;58588;48.102;19.682;2023-01-25T01:47:51;100991.34;;;-2.13;100.00
70930;BME280;58588;48.102;19.682;2023-01-25T01:50:55;100983.44;;;-2.13;100.00
70930;BME280;58588;48.102;19.682;2023-01-25T01:54:02;100992.41;;;-2.18;100.00
70930;BME280;58588;48.102;19.682;2023-01-25T01:57:10;100997.19;;;-2.26;100.00
70930;BME280;58588;48.102;19.682;2023-01-25T02:00:17;100993.34;;;-2.19;100.00
70930;BME280;58588;48.102;19.682;2023-01-25T02:03:19;100992.94;;;-2.30;100.00
70930;BME280;58588;48.102;19.682;2023-01-25T02:06:34;100985.38;;;-2.37;100.00
70930;BME280;58588;48.102;19.682;2023-01-25T02:09:37;100989.91;;;-2.41;100.00
70930;BME280;58588;48.102;19.682;2023-01-25T02:12:40;100983.84;;;-2.43;100.00
70930;BME280;58588;48.102;19.682;2023-01-25T02:15:46;100989.25;;;-2.46;100.00
70930;BME280;58588;48.102;19.682;2023-01-25T02:18:50;100991.09;;;-2.48;100.00
70930;BME280;58588;48.102;19.682;2023-01-25T02:21:56;100989.25;;;-2.46;100.00
70930;BME280;58588;48.102;19.682;2023-01-25T02:25:04;100990.44;;;-2.53;100.00
70930;BME280;58588;48.102;19.682;2023-01-25T02:28:09;100992.03;;;-2.49;100.00
70930;BME280;58588;48.102;19.682;2023-01-25T02:31:14;100998.25;;;-2.50;100.00
70930;BME280;58588;48.102;19.682;2023-01-25T02:34:16;100994.06;;;-2.56;100.00
70930;BME280;58588;48.102;19.682;2023-01-25T02:37:18;100983.22;;;-2.70;100.00
70930;BME280;58588;48.102;19.682;2023-01-25T02:40:21;100991.28;;;-2.73;100.00
70930;BME280;58588;48.102;19.682;2023-01-25T02:43:27;100992.28;;;-2.76;100.00
70930;BME280;58588;48.102;19.682;2023-01-25T02:46:32;100989.50;;;-2.73;100.00
70930;BME280;58588;48.102;19.682;2023-01-25T02:49:35;100984.38;;;-2.76;100.00
70930;BME280;58588;48.102;19.682;2023-01-25T02:52:37;100990.44;;;-2.74;100.00
70930;BME280;58588;48.102;19.682;2023-01-25T02:55:41;100987.81;;;-2.74;100.00
70930;BME280;58588;48.102;19.682;2023-01-25T02:58:43;100983.50;;;-2.76;100.00
70930;BME280;58588;48.102;19.682;2023-01-25T03:01:46;100986.09;;;-2.75;100.00
70930;BME280;58588;48.102;19.682;2023-01-25T03:04:48;100992.22;;;-2.74;100.00
70930;BME280;58588;48.102;19.682;2023-01-25T03:07:51;100986.00;;;-2.73;100.00
70930;BME280;58588;48.102;19.682;2023-01-25T03:10:56;100992.16;;;-2.73;100.00
70930;BME280;58588;48.102;19.682;2023-01-25T03:13:58;100972.22;;;-2.80;100.00
70930;BME280;58588;48.102;19.682;2023-01-25T03:17:00;100975.06;;;-2.84;100.00
70930;BME280;58588;48.102;19.682;2023-01-25T03:20:03;100968.50;;;-2.96;100.00
70930;BME280;58588;48.102;19.682;2023-01-25T03:23:05;100971.38;;;-2.80;100.00
70930;BME280;58588;48.102;19.682;2023-01-25T03:26:10;100958.69;;;-2.92;100.00
70930;BME280;58588;48.102;19.682;2023-01-25T03:29:13;100967.22;;;-2.86;100.00
70930;BME280;58588;48.102;19.682;2023-01-25T03:32:15;100962.19;;;-2.92;100.00
70930;BME280;58588;48.102;19.682;2023-01-25T03:35:17;100969.66;;;-2.81;100.00
70930;BME280;58588;48.102;19.682;2023-01-25T03:38:19;100972.41;;;-2.84;100.00
70930;BME280;58588;48.102;19.682;2023-01-25T03:41:22;100980.75;;;-2.73;100.00
70930;BME280;58588;48.102;19.682;2023-01-25T03:44:24;100970.38;;;-2.78;100.00
70930;BME280;58588;48.102;19.682;2023-01-25T03:47:27;100981.09;;;-2.82;100.00
70930;BME280;58588;48.102;19.682;2023-01-25T03:50:29;100983.09;;;-2.87;100.00
70930;BME280;58588;48.102;19.682;2023-01-25T03:53:31;100969.28;;;-2.94;100.00
70930;BME280;58588;48.102;19.682;2023-01-25T03:56:35;100983.91;;;-2.85;100.00
70930;BME280;58588;48.102;19.682;2023-01-25T03:59:37;100976.31;;;-2.93;100.00
70930;BME280;58588;48.102;19.682;2023-01-25T04:02:39;100981.59;;;-2.93;100.00
70930;BME280;58588;48.102;19.682;2023-01-25T04:05:41;100978.03;;;-2.92;100.00
70930;BME280;58588;48.102;19.682;2023-01-25T04:08:43;100976.94;;;-2.88;100.00
70930;BME280;58588;48.102;19.682;2023-01-25T04:11:49;100970.03;;;-2.90;100.00
70930;BME280;58588;48.102;19.682;2023-01-25T04:14:52;100971.28;;;-2.99;100.00
70930;BME280;58588;48.102;19.682;2023-01-25T04:17:54;100964.66;;;-3.09;100.00
70930;BME280;58588;48.102;19.682;2023-01-25T04:20:57;100977.09;;;-3.13;100.00
70930;BME280;58588;48.102;19.682;2023-01-25T04:23:59;100981.16;;;-3.04;100.00
70930;BME280;58588;48.102;19.682;2023-01-25T04:27:02;100976.25;;;-3.13;100.00
70930;BME280;58588;48.102;19.682;2023-01-25T04:30:06;100984.91;;;-3.10;100.00
70930;BME280;58588;48.102;19.682;2023-01-25T04:33:08;100979.75;;;-3.13;100.00
70930;BME280;58588;48.102;19.682;2023-01-25T04:36:11;100972.69;;;-3.12;100.00
70930;BME280;58588;48.102;19.682;2023-01-25T04:39:13;100970.44;;;-3.21;100.00
70930;BME280;58588;48.102;19.682;2023-01-25T04:42:16;100970.28;;;-3.18;100.00
70930;BME280;58588;48.102;19.682;2023-01-25T04:45:19;100979.94;;;-3.17;100.00
70930;BME280;58588;48.102;19.682;2023-01-25T04:48:21;100974.44;;;-3.11;100.00
70930;BME280;58588;48.102;19.682;2023-01-25T04:51:23;100975.41;;;-3.14;100.00
70930;BME280;58588;48.102;19.682;2023-01-25T04:54:25;100976.22;;;-3.12;100.00
70930;BME280;58588;48.102;19.682;2023-01-25T04:57:28;100974.47;;;-3.13;100.00
70930;BME280;58588;48.102;19.682;2023-01-25T05:00:30;100968.84;;;-3.26;100.00
70930;BME280;58588;48.102;19.682;2023-01-25T05:03:32;100972.31;;;-3.25;100.00
70930;BME280;58588;48.102;19.682;2023-01-25T05:06:34;100975.78;;;-3.23;100.00
70930;BME280;58588;48.102;19.682;2023-01-25T05:09:36;100977.06;;;-3.33;100.00
70930;BME280;58588;48.102;19.682;2023-01-25T05:12:40;100977.22;;;-3.38;100.00
70930;BME280;58588;48.102;19.682;2023-01-25T05:15:42;100977.56;;;-3.45;100.00
70930;BME280;58588;48.102;19.682;2023-01-25T05:18:44;100974.16;;;-3.49;100.00
70930;BME280;58588;48.102;19.682;2023-01-25T05:21:46;100979.19;;;-3.43;100.00
70930;BME280;58588;48.102;19.682;2023-01-25T05:25:00;100986.75;;;-3.34;100.00
70930;BME280;58588;48.102;19.682;2023-01-25T05:28:05;100978.06;;;-3.36;100.00
70930;BME280;58588;48.102;19.682;2023-01-25T05:31:06;100987.72;;;-3.36;100.00
70930;BME280;58588;48.102;19.682;2023-01-25T05:34:08;100960.31;;;-3.54;100.00
70930;BME280;58588;48.102;19.682;2023-01-25T05:37:13;100989.25;;;-3.31;100.00
70930;BME280;58588;48.102;19.682;2023-01-25T05:40:15;100990.66;;;-3.44;100.00
70930;BME280;58588;48.102;19.682;2023-01-25T05:43:19;100987.84;;;-3.39;100.00
70930;BME280;58588;48.102;19.682;2023-01-25T05:46:23;100982.66;;;-3.41;100.00
70930;BME280;58588;48.102;19.682;2023-01-25T05:49:25;100984.53;;;-3.44;100.00
70930;BME280;58588;48.102;19.682;2023-01-25T05:52:27;100989.25;;;-3.53;100.00
70930;BME280;58588;48.102;19.682;2023-01-25T05:55:29;100991.69;;;-3.48;100.00
70930;BME280;58588;48.102;19.682;2023-01-25T05:58:32;100998.19;;;-3.57;100.00
70930;BME280;58588;48.102;19.682;2023-01-25T06:01:34;101000.66;;;-3.52;100.00
70930;BME280;58588;48.102;19.682;2023-01-25T06:04:36;100999.84;;;-3.54;100.00
70930;BME280;58588;48.102;19.682;2023-01-25T06:07:38;101000.03;;;-3.59;100.00
70930;BME280;58588;48.102;19.682;2023-01-25T06:10:40;101003.69;;;-3.63;100.00
70930;BME280;58588;48.102;19.682;2023-01-25T06:13:44;100994.81;;;-3.60;100.00
70930;BME280;58588;48.102;19.682;2023-01-25T06:16:46;101004.88;;;-3.48;100.00
70930;BME280;58588;48.102;19.682;2023-01-25T06:19:48;101003.06;;;-3.46;100.00
70930;BME280;58588;48.102;19.682;2023-01-25T06:22:50;100999.22;;;-3.61;100.00
70930;BME280;58588;48.102;19.682;2023-01-25T06:25:56;100997.56;;;-3.63;100.00
70930;BME280;58588;48.102;19.682;2023-01-25T06:28:59;100998.69;;;-3.47;100.00
70930;BME280;58588;48.102;19.682;2023-01-25T06:32:01;100999.31;;;-3.40;100.00
70930;BME280;58588;48.102;19.682;2023-01-25T06:35:05;100997.59;;;-3.41;100.00
70930;BME280;58588;48.102;19.682;2023-01-25T06:38:07;100999.50;;;-3.45;100.00
70930;BME280;58588;48.102;19.682;2023-01-25T06:41:10;101004.22;;;-3.53;100.00
70930;BME280;58588;48.102;19.682;2023-01-25T06:44:13;101010.78;;;-3.41;100.00
70930;BME280;58588;48.102;19.682;2023-01-25T06:47:16;101004.63;;;-3.42;100.00
70930;BME280;58588;48.102;19.682;2023-01-25T06:50:18;100994.94;;;-3.63;100.00
70930;BME280;58588;48.102;19.682;2023-01-25T06:53:20;100996.31;;;-3.53;100.00
70930;BME280;58588;48.102;19.682;2023-01-25T06:56:22;101001.28;;;-3.45;100.00
70930;BME280;58588;48.102;19.682;2023-01-25T06:59:26;100995.44;;;-3.54;100.00
70930;BME280;58588;48.102;19.682;2023-01-25T07:02:28;100997.53;;;-3.40;100.00
70930;BME280;58588;48.102;19.682;2023-01-25T07:05:30;100995.59;;;-3.35;100.00
70930;BME280;58588;48.102;19.682;2023-01-25T07:08:34;100999.69;;;-3.28;100.00
70930;BME280;58588;48.102;19.682;2023-01-25T07:11:36;100998.84;;;-3.28;100.00
70930;BME280;58588;48.102;19.682;2023-01-25T07:14:40;100999.94;;;-3.12;100.00
70930;BME280;58588;48.102;19.682;2023-01-25T07:17:42;100995.22;;;-3.04;100.00
70930;BME280;58588;48.102;19.682;2023-01-25T07:20:44;100993.16;;;-2.97;100.00
70930;BME280;58588;48.102;19.682;2023-01-25T07:23:46;100994.19;;;-2.79;100.00
70930;BME280;58588;48.102;19.682;2023-01-25T07:26:48;100995.53;;;-2.69;100.00
70930;BME280;58588;48.102;19.682;2023-01-25T07:29:51;100996.31;;;-2.67;100.00
70930;BME280;58588;48.102;19.682;2023-01-25T07:32:53;100997.94;;;-2.64;100.00
70930;BME280;58588;48.102;19.682;2023-01-25T07:35:58;100993.94;;;-2.73;100.00
70930;BME280;58588;48.102;19.682;2023-01-25T07:39:00;101013.91;;;-2.46;100.00
70930;BME280;58588;48.102;19.682;2023-01-25T07:42:03;101006.50;;;-2.37;100.00
70930;BME280;58588;48.102;19.682;2023-01-25T07:45:08;101006.53;;;-2.19;100.00
70930;BME280;58588;48.102;19.682;2023-01-25T07:48:10;101005.13;;;-2.07;100.00
70930;BME280;58588;48.102;19.682;2023-01-25T07:51:12;100999.50;;;-1.99;100.00
70930;BME280;58588;48.102;19.682;2023-01-25T07:54:26;101004.97;;;-1.83;100.00
70930;BME280;58588;48.102;19.682;2023-01-25T07:57:28;100998.63;;;-1.60;100.00
70930;BME280;58588;48.102;19.682;2023-01-25T08:00:32;100995.13;;;-1.42;100.00
70930;BME280;58588;48.102;19.682;2023-01-25T08:03:34;100999.75;;;-1.47;100.00
70930;BME280;58588;48.102;19.682;2023-01-25T08:06:37;100995.88;;;-1.40;100.00
70930;BME280;58588;48.102;19.682;2023-01-25T08:09:40;100992.81;;;-1.31;100.00
70930;BME280;58588;48.102;19.682;2023-01-25T08:12:44;100994.63;;;-1.31;100.00
70930;BME280;58588;48.102;19.682;2023-01-25T08:15:53;100997.34;;;-1.16;100.00
70930;BME280;58588;48.102;19.682;2023-01-25T08:18:57;100999.97;;;-0.97;100.00
70930;BME280;58588;48.102;19.682;2023-01-25T08:22:00;100990.50;;;-0.84;100.00
70930;BME280;58588;48.102;19.682;2023-01-25T08:25:02;100993.84;;;-0.63;100.00
70930;BME280;58588;48.102;19.682;2023-01-25T08:28:05;100987.22;;;-0.54;100.00
70930;BME280;58588;48.102;19.682;2023-01-25T08:31:10;100983.78;;;-0.39;100.00
70930;BME280;58588;48.102;19.682;2023-01-25T08:34:13;100987.13;;;-0.18;100.00
70930;BME280;58588;48.102;19.682;2023-01-25T08:37:15;100986.91;;;0.03;100.00
70930;BME280;58588;48.102;19.682;2023-01-25T08:40:17;100993.78;;;0.07;100.00
70930;BME280;58588;48.102;19.682;2023-01-25T08:43:19;100985.75;;;0.24;100.00
70930;BME280;58588;48.102;19.682;2023-01-25T08:46:25;100978.81;;;0.21;100.00
70930;BME280;58588;48.102;19.682;2023-01-25T08:49:27;100984.16;;;0.37;100.00
70930;BME280;58588;48.102;19.682;2023-01-25T08:52:30;100986.38;;;0.45;100.00
70930;BME280;58588;48.102;19.682;2023-01-25T08:55:35;100995.63;;;0.53;100.00
70930;BME280;58588;48.102;19.682;2023-01-25T08:58:37;101004.13;;;0.60;100.00
70930;BME280;58588;48.102;19.682;2023-01-25T09:01:41;100999.06;;;0.71;100.00
70930;BME280;58588;48.102;19.682;2023-01-25T09:04:43;100998.81;;;0.76;100.00
70930;BME280;58588;48.102;19.682;2023-01-25T09:07:45;100996.16;;;0.60;100.00
70930;BME280;58588;48.102;19.682;2023-01-25T09:10:48;100981.88;;;0.78;100.00
70930;BME280;58588;48.102;19.682;2023-01-25T09:13:50;100987.41;;;0.74;100.00
70930;BME280;58588;48.102;19.682;2023-01-25T09:16:53;100985.63;;;0.74;100.00
70930;BME280;58588;48.102;19.682;2023-01-25T09:19:55;100985.63;;;0.90;100.00
70930;BME280;58588;48.102;19.682;2023-01-25T09:22:57;100986.53;;;0.89;100.00
70930;BME280;58588;48.102;19.682;2023-01-25T09:26:00;100984.59;;;0.77;100.00
70930;BME280;58588;48.102;19.682;2023-01-25T09:29:02;100982.53;;;0.98;100.00
70930;BME280;58588;48.102;19.682;2023-01-25T09:32:06;100975.28;;;1.16;100.00
70930;BME280;58588;48.102;19.682;2023-01-25T09:35:08;100970.16;;;1.43;100.00
70930;BME280;58588;48.102;19.682;2023-01-25T09:38:10;100964.31;;;1.66;100.00
70930;BME280;58588;48.102;19.682;2023-01-25T09:41:33;100962.72;;;1.78;100.00
70930;BME280;58588;48.102;19.682;2023-01-25T09:48:33;100965.66;;;1.87;100.00
70930;BME280;58588;48.102;19.682;2023-01-25T09:51:50;100952.94;;;2.07;100.00
70930;BME280;58588;48.102;19.682;2023-01-25T09:54:54;100952.47;;;2.29;100.00
70930;BME280;58588;48.102;19.682;2023-01-25T09:58:00;100954.53;;;2.38;100.00
70930;BME280;58588;48.102;19.682;2023-01-25T10:01:24;100955.44;;;2.51;100.00
70930;BME280;58588;48.102;19.682;2023-01-25T10:04:36;100942.06;;;2.53;100.00
70930;BME280;58588;48.102;19.682;2023-01-25T10:07:50;100941.91;;;2.68;100.00
70930;BME280;58588;48.102;19.682;2023-01-25T10:10:59;100937.34;;;2.71;100.00
70930;BME280;58588;48.102;19.682;2023-01-25T10:14:12;100936.22;;;2.87;100.00
70930;BME280;58588;48.102;19.682;2023-01-25T10:17:21;100924.34;;;3.06;100.00
70930;BME280;58588;48.102;19.682;2023-01-25T10:20:32;100922.38;;;2.82;100.00
70930;BME280;58588;48.102;19.682;2023-01-25T10:23:50;100920.63;;;3.08;100.00
70930;BME280;58588;48.102;19.682;2023-01-25T10:27:02;100904.81;;;3.32;100.00
70930;BME280;58588;48.102;19.682;2023-01-25T10:30:22;100892.03;;;3.50;100.00
70930;BME280;58588;48.102;19.682;2023-01-25T10:33:27;100895.28;;;3.15;100.00
70930;BME280;58588;48.102;19.682;2023-01-25T10:36:31;100881.13;;;3.40;100.00
70930;BME280;58588;48.102;19.682;2023-01-25T10:39:38;100873.34;;;3.75;100.00
70930;BME280;58588;48.102;19.682;2023-01-25T10:42:46;100876.75;;;3.90;100.00
70930;BME280;58588;48.102;19.682;2023-01-25T10:45:50;100865.56;;;3.85;100.00
70930;BME280;58588;48.102;19.682;2023-01-25T10:48:52;100857.75;;;3.95;100.00
70930;BME280;58588;48.102;19.682;2023-01-25T10:52:11;100854.31;;;4.06;100.00
70930;BME280;58588;48.102;19.682;2023-01-25T10:55:15;100843.34;;;3.97;100.00
70930;BME280;58588;48.102;19.682;2023-01-25T10:58:29;100842.97;;;4.15;100.00
70930;BME280;58588;48.102;19.682;2023-01-25T11:01:33;100849.53;;;4.35;100.00
70930;BME280;58588;48.102;19.682;2023-01-25T11:04:35;100830.84;;;4.35;100.00
70930;BME280;58588;48.102;19.682;2023-01-25T11:07:40;100835.72;;;4.41;100.00
70930;BME280;58588;48.102;19.682;2023-01-25T11:10:45;100836.84;;;4.49;100.00
70930;BME280;58588;48.102;19.682;2023-01-25T11:13:47;100827.88;;;4.26;100.00
70930;BME280;58588;48.102;19.682;2023-01-25T11:16:49;100811.56;;;4.66;100.00
70930;BME280;58588;48.102;19.682;2023-01-25T11:20:05;100805.91;;;4.47;100.00
70930;BME280;58588;48.102;19.682;2023-01-25T11:23:21;100812.06;;;4.71;100.00
70930;BME280;58588;48.102;19.682;2023-01-25T11:26:23;100806.97;;;4.79;100.00
70930;BME280;58588;48.102;19.682;2023-01-25T11:29:25;100792.09;;;4.88;100.00
70930;BME280;58588;48.102;19.682;2023-01-25T11:32:28;100785.56;;;4.92;100.00
70930;BME280;58588;48.102;19.682;2023-01-25T11:35:32;100786.06;;;5.20;100.00
70930;BME280;58588;48.102;19.682;2023-01-25T11:38:36;100774.75;;;5.05;100.00
70930;BME280;58588;48.102;19.682;2023-01-25T11:41:49;100766.44;;;4.74;100.00
70930;BME280;58588;48.102;19.682;2023-01-25T11:45:15;100768.47;;;4.71;100.00
70930;BME280;58588;48.102;19.682;2023-01-25T11:48:49;100758.53;;;4.73;100.00
70930;BME280;58588;48.102;19.682;2023-01-25T11:52:03;100757.78;;;4.71;100.00
70930;BME280;58588;48.102;19.682;2023-01-25T11:55:19;100757.22;;;4.90;100.00
70930;BME280;58588;48.102;19.682;2023-01-25T11:58:38;100743.19;;;4.99;100.00
70930;BME280;58588;48.102;19.682;2023-01-25T12:01:56;100738.22;;;5.28;100.00
70930;BME280;58588;48.102;19.682;2023-01-25T12:05:24;100729.94;;;5.20;100.00
70930;BME280;58588;48.102;19.682;2023-01-25T12:08:39;100731.53;;;5.22;100.00
70930;BME280;58588;48.102;19.682;2023-01-25T12:11:54;100717.31;;;4.99;100.00
70930;BME280;58588;48.102;19.682;2023-01-25T12:15:23;100717.69;;;5.17;100.00
70930;BME280;58588;48.102;19.682;2023-01-25T12:25:28;100690.31;;;5.14;100.00
70930;BME280;58588;48.102;19.682;2023-01-25T12:28:38;100694.09;;;5.33;100.00
70930;BME280;58588;48.102;19.682;2023-01-25T12:31:45;100677.22;;;5.10;100.00
70930;BME280;58588;48.102;19.682;2023-01-25T12:34:56;100682.31;;;5.25;100.00
70930;BME280;58588;48.102;19.682;2023-01-25T12:38:09;100684.50;;;5.31;100.00
70930;BME280;58588;48.102;19.682;2023-01-25T12:41:22;100683.88;;;5.27;100.00
70930;BME280;58588;48.102;19.682;2023-01-25T12:44:30;100674.66;;;5.20;100.00
70930;BME280;58588;48.102;19.682;2023-01-25T12:47:38;100679.28;;;5.29;100.00
70930;BME280;58588;48.102;19.682;2023-01-25T12:50:45;100668.09;;;5.02;100.00
70930;BME280;58588;48.102;19.682;2023-01-25T12:53:51;100663.13;;;4.86;100.00
70930;BME280;58588;48.102;19.682;2023-01-25T12:56:59;100662.97;;;4.65;100.00
70930;BME280;58588;48.102;19.682;2023-01-25T13:00:16;100670.75;;;4.68;100.00
70930;BME280;58588;48.102;19.682;2023-01-25T13:03:28;100661.50;;;4.50;100.00
70930;BME280;58588;48.102;19.682;2023-01-25T13:06:37;100664.91;;;4.52;100.00
70930;BME280;58588;48.102;19.682;2023-01-25T13:09:44;100663.53;;;4.46;100.00
70930;BME280;58588;48.102;19.682;2023-01-25T13:12:52;100664.88;;;4.41;100.00
70930;BME280;58588;48.102;19.682;2023-01-25T13:15:56;100655.59;;;4.22;100.00
70930;BME280;58588;48.102;19.682;2023-01-25T13:18:58;100655.94;;;4.18;100.00
70930;BME280;58588;48.102;19.682;2023-01-25T13:22:00;100651.06;;;4.12;100.00
70930;BME280;58588;48.102;19.682;2023-01-25T13:25:08;100658.06;;;4.01;100.00
70930;BME280;58588;48.102;19.682;2023-01-25T13:28:40;100657.78;;;3.93;100.00
70930;BME280;58588;48.102;19.682;2023-01-25T13:31:44;100666.25;;;3.87;100.00
70930;BME280;58588;48.102;19.682;2023-01-25T13:34:57;100661.59;;;3.54;100.00
70930;BME280;58588;48.102;19.682;2023-01-25T13:41:56;100650.41;;;3.49;100.00
70930;BME280;58588;48.102;19.682;2023-01-25T13:45:02;100647.56;;;3.39;100.00
70930;BME280;58588;48.102;19.682;2023-01-25T13:48:12;100649.22;;;3.53;100.00
70930;BME280;58588;48.102;19.682;2023-01-25T13:51:17;100645.94;;;3.49;100.00
70930;BME280;58588;48.102;19.682;2023-01-25T13:54:20;100641.66;;;3.47;100.00
70930;BME280;58588;48.102;19.682;2023-01-25T13:57:24;100641.00;;;3.56;100.00
70930;BME280;58588;48.102;19.682;2023-01-25T14:00:26;100638.72;;;3.63;100.00
70930;BME280;58588;48.102;19.682;2023-01-25T14:03:33;100644.78;;;3.65;100.00
70930;BME280;58588;48.102;19.682;2023-01-25T14:06:38;100641.13;;;3.55;100.00
70930;BME280;58588;48.102;19.682;2023-01-25T14:09:43;100634.19;;;3.52;100.00
70930;BME280;58588;48.102;19.682;2023-01-25T14:12:45;100637.63;;;3.41;100.00
70930;BME280;58588;48.102;19.682;2023-01-25T14:15:54;100630.53;;;3.29;100.00
70930;BME280;58588;48.102;19.682;2023-01-25T14:19:21;100634.34;;;3.38;100.00
70930;BME280;58588;48.102;19.682;2023-01-25T14:22:24;100639.88;;;3.35;100.00
70930;BME280;58588;48.102;19.682;2023-01-25T14:25:26;100642.28;;;3.27;100.00
70930;BME280;58588;48.102;19.682;2023-01-25T14:28:29;100638.75;;;3.26;100.00
70930;BME280;58588;48.102;19.682;2023-01-25T14:31:33;100632.22;;;3.43;100.00
70930;BME280;58588;48.102;19.682;2023-01-25T14:34:37;100628.25;;;3.48;100.00
70930;BME280;58588;48.102;19.682;2023-01-25T14:37:41;100630.06;;;3.35;100.00
70930;BME280;58588;48.102;19.682;2023-01-25T14:40:44;100627.47;;;3.22;100.00
70930;BME280;58588;48.102;19.682;2023-01-25T14:44:00;100641.94;;;3.31;100.00
70930;BME280;58588;48.102;19.682;2023-01-25T14:47:25;100624.06;;;3.20;100.00
70930;BME280;58588;48.102;19.682;2023-01-25T14:50:35;100623.53;;;3.15;100.00
70930;BME280;58588;48.102;19.682;2023-01-25T14:53:38;100619.06;;;3.16;100.00
70930;BME280;58588;48.102;19.682;2023-01-25T14:56:42;100619.63;;;3.08;100.00
70930;BME280;58588;48.102;19.682;2023-01-25T14:59:49;100625.28;;;3.04;100.00
70930;BME280;58588;48.102;19.682;2023-01-25T15:02:54;100626.00;;;3.06;100.00
70930;BME280;58588;48.102;19.682;2023-01-25T15:06:02;100626.44;;;3.00;100.00
70930;BME280;58588;48.102;19.682;2023-01-25T15:09:23;100623.13;;;3.09;100.00
70930;BME280;58588;48.102;19.682;2023-01-25T15:12:28;100623.91;;;2.85;100.00
70930;BME280;58588;48.102;19.682;2023-01-25T15:15:33;100618.38;;;2.76;100.00
70930;BME280;58588;48.102;19.682;2023-01-25T15:18:43;100620.44;;;2.72;100.00
70930;BME280;58588;48.102;19.682;2023-01-25T15:21:47;100619.16;;;2.65;100.00
70930;BME280;58588;48.102;19.682;2023-01-25T15:24:49;100613.84;;;2.65;100.00
70930;BME280;58588;48.102;19.682;2023-01-25T15:27:51;100610.75;;;2.58;100.00
70930;BME280;58588;48.102;19.682;2023-01-25T15:30:54;100606.38;;;2.70;100.00
70930;BME280;58588;48.102;19.682;2023-01-25T15:33:59;100609.13;;;2.68;100.00
70930;BME280;58588;48.102;19.682;2023-01-25T15:37:03;100615.22;;;2.71;100.00
70930;BME280;58588;48.102;19.682;2023-01-25T15:40:07;100604.25;;;2.50;100.00
70930;BME280;58588;48.102;19.682;2023-01-25T15:43:10;100604.38;;;2.48;100.00
70930;BME280;58588;48.102;19.682;2023-01-25T15:46:15;100606.19;;;2.48;100.00
70930;BME280;58588;48.102;19.682;2023-01-25T15:49:23;100609.25;;;2.54;100.00
70930;BME280;58588;48.102;19.682;2023-01-25T15:52:27;100606.06;;;2.62;100.00
70930;BME280;58588;48.102;19.682;2023-01-25T15:55:29;100605.94;;;2.51;100.00
70930;BME280;58588;48.102;19.682;2023-01-25T15:58:33;100611.38;;;2.49;100.00
70930;BME280;58588;48.102;19.682;2023-01-25T16:01:36;100606.38;;;2.57;100.00
70930;BME280;58588;48.102;19.682;2023-01-25T16:04:38;100608.59;;;2.63;100.00